• Join FlightAware (Why Join?)
  • Login
  • US Flag 
Rudolph Flight #1: Arrived! 
03:02PM EST


 

Airport Tracker/Info


-or-


 

Live Flight TrackerFlight Track Log ✈ N69575 ✈ 09-May-2013 ✈ KSSI - KMOR

Flight Track Log - Related Links

Times and Time Zones

All times are in EDT time to prevent confusion due to time zone crossing. See the N69575 flight status page for this flight to view local times or setup timezone preferences in your user account.

Time Position Orientation Groundspeed Altitude Reporting Facility
EDT Latitude Longitude Course Direction KTS MPH feet Rate Location/Type
02:28PM 31.2681 -81.3711 342° North 179 206 3,800  Level Jacksonville Center
02:29PM 31.3036 -81.3850 342° North 156 180 4,600 780 Climbing Jacksonville Center
02:30PM 31.3414 -81.3967 345° North 140 161 5,400 720 Climbing Jacksonville Center
02:31PM 31.3789 -81.3936 North 145 167 6,100 780 Climbing Jacksonville Center
02:32PM 31.4228 -81.3906 North 145 167 7,000 780 Climbing Jacksonville Center
02:33PM 31.4644 -81.3825 North 140 161 7,700 600 Climbing Jacksonville Center
02:34PM 31.5039 -81.3769 North 140 161 8,300 600 Climbing Jacksonville Center
02:35PM 31.5414 -81.3739 North 147 169 8,900 360 Climbing Jacksonville Center
02:36PM 31.5872 -81.3586 16° North 147 169 9,100 60 Climbing Jacksonville Center
02:37PM 31.6372 -81.3406 17° North 164 189 9,100  Level Jacksonville Center
02:38PM 31.6850 -81.3178 22° Northeast 176 203 9,100  Level Jacksonville Center
02:39PM 31.7347 -81.2975 19° North 183 211 9,100 -60 Level Jacksonville Center
02:40PM 31.7806 -81.2844 14° North 183 211 9,000  Descending Jacksonville Center
02:41PM 31.8344 -81.2664 16° North 183 211 9,200 60 Climbing Jacksonville Center
02:43PM 31.9059 -81.2466 13° North  Level FlightAware Approximate
02:50PM 32.2224 -81.2307 336° Northwest  Level FlightAware Approximate
02:51PM 32.2655 -81.2537 336° Northwest  Level FlightAware Approximate
02:52PM 32.3087 -81.2768 336° Northwest  Level FlightAware Approximate
02:53PM 32.3518 -81.2998 336° Northwest  Level FlightAware Approximate
02:53PM 32.3675 -81.4956 336° Northwest 169 194 10,200  Level Jacksonville Center
02:54PM 32.3950 -81.3229 336° Northwest  Level FlightAware Approximate
02:54PM 32.4200 -81.5242 335° Northwest 169 194 9,900  Level Jacksonville Center
02:55PM 32.4381 -81.3458 336° Northwest  Level FlightAware Approximate
02:55PM 32.4642 -81.5433 340° North 169 194 10,100  Level Jacksonville Center
02:56PM 32.4813 -81.3688 336° Northwest  Level FlightAware Approximate
02:56PM 32.5042 -81.5650 335° Northwest 169 194 10,100  Level Jacksonville Center
02:57PM 32.5245 -81.3919 336° Northwest  Level FlightAware Approximate
02:57PM 32.5522 -81.5864 339° North 169 194 10,000  Level Jacksonville Center
02:58PM 32.5964 -81.6006 345° North 169 194 10,100 -60 Climbing Jacksonville Center
02:59PM 32.6383 -81.6219 337° Northwest 169 194 9,900 -60 Descending Jacksonville Center
03:00PM 32.6886 -81.6411 342° North 174 200 10,000 -60 Climbing Jacksonville Center
03:01PM 32.7389 -81.6603 342° North 174 200 9,800 -60 Descending Jacksonville Center
03:02PM 32.7828 -81.6817 338° Northwest 174 200 9,900  Climbing Jacksonville Center
03:04PM 32.8546 -81.7094 342° North  Level FlightAware Approximate
03:11PM 33.1813 -81.8269 341° North  Level FlightAware Approximate
03:12PM 33.2273 -81.8461 341° North  Level FlightAware Approximate
03:13PM 33.2733 -81.8653 341° North  Level FlightAware Approximate
03:14PM 33.3194 -81.8846 341° North  Level FlightAware Approximate
03:15PM 33.3654 -81.9038 341° North  Level FlightAware Approximate
03:16PM 33.4114 -81.9231 341° North  Level FlightAware Approximate
03:17PM 33.4574 -81.9424 341° North  Level FlightAware Approximate
03:18PM 33.5034 -81.9617 341° North  Level FlightAware Approximate
03:19PM 33.5494 -81.9810 341° North  Level FlightAware Approximate
03:20PM 33.5954 -82.0004 341° North  Level FlightAware Approximate
03:21PM 33.6414 -82.0198 341° North  Level FlightAware Approximate
03:22PM 33.6874 -82.0392 341° North  Level FlightAware Approximate
03:23PM 33.7333 -82.0586 341° North  Level FlightAware Approximate
03:24PM 33.7793 -82.0780 341° North  Level FlightAware Approximate
03:25PM 33.8253 -82.0975 341° North  Level FlightAware Approximate
03:26PM 33.8713 -82.1170 341° North  Level FlightAware Approximate
03:27PM 33.9173 -82.1365 341° North  Level FlightAware Approximate
03:28PM 33.9632 -82.1560 341° North  Level FlightAware Approximate
03:29PM 34.0092 -82.1755 341° North  Level FlightAware Approximate
03:30PM 34.0552 -82.1951 341° North  Level FlightAware Approximate
03:31PM 34.1001 -82.2178 336° Northwest  Level FlightAware Approximate
03:32PM 34.1447 -82.2416 336° Northwest  Level FlightAware Approximate
03:33PM 34.1893 -82.2654 336° Northwest  Level FlightAware Approximate
03:34PM 34.2339 -82.2892 336° Northwest  Level FlightAware Approximate
03:35PM 34.2784 -82.3131 336° Northwest  Level FlightAware Approximate
03:36PM 34.3230 -82.3370 336° Northwest  Level FlightAware Approximate
03:37PM 34.3676 -82.3608 336° Northwest  Level FlightAware Approximate
03:38PM 34.4121 -82.3848 336° Northwest  Level FlightAware Approximate
03:39PM 34.4567 -82.4087 336° Northwest  Level FlightAware Approximate
03:40PM 34.5013 -82.4327 336° Northwest  Level FlightAware Approximate
03:41PM 34.5457 -82.4570 335° Northwest  Level FlightAware Approximate
03:42PM 34.5898 -82.4821 335° Northwest  Level FlightAware Approximate
03:43PM 34.6340 -82.5072 335° Northwest  Level FlightAware Approximate
03:44PM 34.6781 -82.5324 335° Northwest  Level FlightAware Approximate
03:45PM 34.7222 -82.5575 335° Northwest  Level FlightAware Approximate
03:46PM 34.7663 -82.5827 335° Northwest  Level FlightAware Approximate
03:47PM 34.8105 -82.6080 335° Northwest  Level FlightAware Approximate
03:48PM 34.8546 -82.6332 335° Northwest  Level FlightAware Approximate
03:49PM 34.8987 -82.6585 335° Northwest  Level FlightAware Approximate
03:50PM 34.9428 -82.6838 335° Northwest  Level FlightAware Approximate
03:51PM 34.9869 -82.7091 335° Northwest  Level FlightAware Approximate
03:52PM 35.0317 -82.7325 338° Northwest  Level FlightAware Approximate
03:53PM 35.0766 -82.7556 335° Northwest  Level FlightAware Approximate
03:53PM 35.0275 -82.7731 335° Northwest 158 182 10,100  Level Atlanta Center
03:54PM 35.1209 -82.7805 335° Northwest  Level FlightAware Approximate
03:54PM 35.0633 -82.8131 318° Northwest 181 208 9,900  Level Atlanta Center
03:55PM 35.1652 -82.8055 335° Northwest  Level FlightAware Approximate
03:55PM 35.0992 -82.8456 323° Northwest 176 203 10,100  Level Atlanta Center
03:56PM 35.2094 -82.8304 335° Northwest  Level FlightAware Approximate
03:56PM 35.1389 -82.8781 326° Northwest 171 197 10,100  Level Atlanta Center
03:57PM 35.2537 -82.8554 335° Northwest  Level FlightAware Approximate
03:57PM 35.1831 -82.9003 338° Northwest 171 197 10,100  Level Atlanta Center
03:58PM 35.2979 -82.8804 335° Northwest  Level FlightAware Approximate
03:58PM 35.2314 -82.9275 335° Northwest 177 204 9,900  Level Atlanta Center
03:59PM 35.3422 -82.9055 335° Northwest  Level FlightAware Approximate
03:59PM 35.2772 -82.9447 343° North 177 204 10,300  Level Atlanta Center
04:00PM 35.3256 -82.9644 342° North 171 197 10,000 -240 Descending Atlanta Center
04:01PM 35.3736 -82.9867 339° North 171 197 9,900  Descending Atlanta Center
04:02PM 35.4239 -83.0067 342° North 176 203 10,000  Climbing Atlanta Center
04:03PM 35.4742 -83.0186 349° North 176 203 9,900 -180 Descending Atlanta Center
04:04PM 35.5306 -83.0256 354° North 186 214 9,700 -300 Descending Atlanta Center
04:05PM 35.5783 -83.0200 North 178 205 9,300 -420 Descending Atlanta Center
04:06PM 35.6264 -83.0039 15° North 178 205 8,900 -240 Descending Atlanta Center
04:07PM 35.6744 -83.0161 348° North 178 205 8,900  Level Atlanta Center
04:08PM 35.7206 -83.0361 341° North 178 205 9,000 -300 Climbing Atlanta Center
04:09PM 35.7603 -83.0636 331° Northwest 173 199 8,400 -600 Descending Atlanta Center
04:10PM 35.8042 -83.0914 333° Northwest 173 199 7,900 -480 Descending Atlanta Center
04:11PM 35.8461 -83.1192 332° Northwest 178 205 7,500 -360 Descending Atlanta Center
04:12PM 35.8881 -83.1442 334° Northwest 173 199 7,200 -420 Descending Atlanta Center
04:13PM 35.9322 -83.1719 333° Northwest 173 199 6,700 -540 Descending Atlanta Center
04:15PM 35.9823 -83.2130 335° Northwest  Level Estimated